createdAt,value
2022-09-30T00:02:52.949Z,6.20
2022-09-30T00:07:54.669Z,6.82
2022-09-30T00:12:56.386Z,7.03
2022-09-30T00:17:59.618Z,7.20
2022-09-30T00:23:01.285Z,6.72
2022-09-30T00:28:02.939Z,7.38
2022-09-30T00:33:04.600Z,6.82
2022-09-30T00:38:06.275Z,7.78
2022-09-30T00:43:17.072Z,7.57
2022-09-30T00:48:36.953Z,6.75
2022-09-30T00:53:52.579Z,6.78
2022-09-30T00:59:01.672Z,6.85
2022-09-30T01:04:09.998Z,7.68
2022-09-30T01:09:12.009Z,7.13
2022-09-30T01:14:21.798Z,7.30
2022-09-30T01:20:00.539Z,7.53
2022-09-30T01:25:23.160Z,7.30
2022-09-30T01:31:03.511Z,6.78
2022-09-30T01:36:20.861Z,6.53
2022-09-30T01:41:26.262Z,7.57
2022-09-30T01:46:44.519Z,7.18
2022-09-30T01:52:06.946Z,6.65
2022-09-30T01:57:20.908Z,6.50
2022-09-30T02:02:28.616Z,6.72
2022-09-30T02:07:40.940Z,7.40
2022-09-30T02:12:53.829Z,7.53
2022-09-30T02:18:03.634Z,7.10
2022-09-30T02:23:15.310Z,7.75
2022-09-30T02:28:27.184Z,7.80
2022-09-30T02:33:39.160Z,7.00
2022-09-30T02:38:44.996Z,6.82
2022-09-30T02:43:46.701Z,6.75
2022-09-30T02:49:03.537Z,7.15
2022-09-30T02:54:29.605Z,6.57
2022-09-30T02:59:31.396Z,6.60
2022-09-30T03:04:35.099Z,6.40
2022-09-30T03:09:36.998Z,6.45
2022-09-30T03:14:56.843Z,6.68
2022-09-30T03:20:20.970Z,6.75
2022-09-30T03:25:34.739Z,5.82
2022-09-30T03:30:48.529Z,7.60
2022-09-30T03:35:59.945Z,7.95
2022-09-30T03:41:08.432Z,7.22
2022-09-30T03:46:26.415Z,7.82
2022-09-30T03:51:29.721Z,7.28
2022-09-30T03:56:31.868Z,7.03
2022-09-30T04:01:33.590Z,7.13
2022-09-30T04:06:35.306Z,7.53
2022-09-30T04:11:37.107Z,6.40
2022-09-30T04:16:38.860Z,7.40
2022-09-30T04:21:40.549Z,7.32
2022-09-30T04:26:42.211Z,7.60
2022-09-30T04:31:43.967Z,6.35
2022-09-30T04:36:45.694Z,6.80
2022-09-30T04:41:47.385Z,7.43
2022-09-30T04:46:49.100Z,6.68
2022-09-30T04:51:50.762Z,7.80
2022-09-30T04:56:52.472Z,8.90
2022-09-30T05:01:54.170Z,8.10
2022-09-30T05:06:55.890Z,9.00
2022-09-30T05:11:57.535Z,8.77
2022-09-30T05:16:59.220Z,9.60
2022-09-30T05:22:00.917Z,9.43
2022-09-30T05:27:03.049Z,9.80
2022-09-30T05:32:04.770Z,8.57
2022-09-30T05:37:06.893Z,8.52
2022-09-30T05:42:13.247Z,10.45
2022-09-30T05:47:15.865Z,9.52
2022-09-30T05:52:17.515Z,9.10
2022-09-30T05:57:19.176Z,10.13
2022-09-30T06:02:20.909Z,9.80
2022-09-30T06:07:22.627Z,10.05
2022-09-30T06:12:26.257Z,9.57
2022-09-30T06:17:27.938Z,8.60
2022-09-30T06:22:29.649Z,8.30
2022-09-30T06:27:33.461Z,8.60
2022-09-30T06:32:35.127Z,9.00
2022-09-30T06:37:39.584Z,7.13
2022-09-30T06:42:41.965Z,7.65
2022-09-30T06:47:57.909Z,8.27
2022-09-30T06:53:03.800Z,6.85
2022-09-30T06:58:11.333Z,7.38
2022-09-30T07:03:25.681Z,8.05
2022-09-30T07:08:32.316Z,9.60
2022-09-30T07:13:34.308Z,8.70
2022-09-30T07:18:36.179Z,7.75
2022-09-30T07:23:38.169Z,7.40
2022-09-30T07:28:40.990Z,6.38
2022-09-30T07:33:43.766Z,6.70
2022-09-30T07:38:47.246Z,6.68
2022-09-30T07:43:48.936Z,6.03
2022-09-30T07:48:52.608Z,6.65
2022-09-30T07:53:56.938Z,5.80
2022-09-30T07:59:01.776Z,5.97
2022-09-30T08:04:06.630Z,6.35
2022-09-30T08:09:09.087Z,6.25
2022-09-30T08:14:19.946Z,6.25
2022-09-30T08:19:23.783Z,4.07
2022-09-30T08:24:26.850Z,4.45
2022-09-30T08:29:53.774Z,4.78
2022-09-30T08:34:50.567Z,3.97
2022-09-30T08:39:52.227Z,2.97
2022-09-30T08:45:02.467Z,2.78
2022-09-30T08:50:34.602Z,3.53
2022-09-30T08:55:42.182Z,3.58
2022-09-30T09:00:44.103Z,3.03
2022-09-30T09:06:12.091Z,3.20
2022-09-30T09:11:21.887Z,2.67
2022-09-30T09:16:27.491Z,3.42
2022-09-30T09:21:52.330Z,2.70
2022-09-30T09:26:56.849Z,3.08
2022-09-30T09:31:59.744Z,2.60
2022-09-30T09:37:04.410Z,2.72
2022-09-30T09:42:34.153Z,2.20
2022-09-30T09:47:35.858Z,2.58
2022-09-30T09:52:57.746Z,2.28
2022-09-30T09:58:17.474Z,2.43
2022-09-30T10:03:28.705Z,2.08
2022-09-30T10:08:33.811Z,2.25
2022-09-30T10:13:38.421Z,1.60
2022-09-30T10:18:45.806Z,1.70
2022-09-30T10:23:47.599Z,1.50
2022-09-30T10:28:52.340Z,2.10
2022-09-30T10:34:11.188Z,2.00
2022-09-30T10:39:24.791Z,1.45
2022-09-30T10:44:27.993Z,1.80
2022-09-30T10:49:51.403Z,2.28
2022-09-30T10:54:58.609Z,2.25
2022-09-30T11:00:23.737Z,2.20
2022-09-30T11:05:56.448Z,2.42
2022-09-30T11:11:10.226Z,2.22
2022-09-30T11:16:21.302Z,2.60
2022-09-30T11:21:36.388Z,2.50
2022-09-30T11:26:56.215Z,2.25
2022-09-30T11:32:25.716Z,2.05
2022-09-30T11:37:43.179Z,2.00
2022-09-30T11:42:53.361Z,2.42
2022-09-30T11:48:09.810Z,2.53
2022-09-30T11:53:34.477Z,2.63
2022-09-30T11:58:43.714Z,2.00
2022-09-30T12:03:55.103Z,2.25
2022-09-30T12:09:03.948Z,3.78
2022-09-30T12:14:13.350Z,2.43
2022-09-30T12:19:39.687Z,1.90
2022-09-30T12:24:45.686Z,1.95
2022-09-30T12:30:18.105Z,1.83
2022-09-30T12:35:34.751Z,1.70
2022-09-30T12:40:58.238Z,1.52
2022-09-30T12:46:13.623Z,2.00
2022-09-30T12:51:25.575Z,1.88
2022-09-30T12:56:30.305Z,2.20
2022-09-30T13:01:39.741Z,1.38
2022-09-30T13:06:47.642Z,2.10
2022-09-30T13:11:55.087Z,1.80
2022-09-30T13:17:08.835Z,1.45
2022-09-30T13:22:24.704Z,1.60
2022-09-30T13:27:42.975Z,1.60
2022-09-30T13:33:02.322Z,1.63
2022-09-30T13:38:34.700Z,1.75
2022-09-30T13:43:45.276Z,1.92
2022-09-30T13:48:56.951Z,1.20
2022-09-30T13:54:06.481Z,1.30
2022-09-30T13:59:14.471Z,1.67
2022-09-30T14:04:37.382Z,1.45
2022-09-30T14:10:11.916Z,1.60
2022-09-30T14:15:32.014Z,1.58
2022-09-30T14:20:54.617Z,1.70
2022-09-30T14:26:11.201Z,1.40
2022-09-30T14:31:15.421Z,1.77
2022-09-30T14:36:22.445Z,2.15
2022-09-30T14:41:26.011Z,1.85
2022-09-30T14:46:38.760Z,1.65
2022-09-30T14:51:43.687Z,2.22
2022-09-30T14:56:45.721Z,2.15
2022-09-30T15:01:50.224Z,2.28
2022-09-30T15:06:53.869Z,2.33
2022-09-30T15:11:56.477Z,2.22
2022-09-30T15:17:02.535Z,2.33
2022-09-30T15:22:09.520Z,2.20
2022-09-30T15:27:30.115Z,1.80
2022-09-30T15:32:36.587Z,1.90
2022-09-30T15:37:38.494Z,1.88
2022-09-30T15:42:54.751Z,2.00
2022-09-30T15:48:02.659Z,2.53
2022-09-30T15:53:25.624Z,2.50
2022-09-30T15:58:37.913Z,2.38
2022-09-30T16:03:47.206Z,2.70
2022-09-30T16:08:53.960Z,2.42
2022-09-30T16:13:57.253Z,2.15
2022-09-30T16:18:59.953Z,2.28
2022-09-30T16:24:01.739Z,2.30
2022-09-30T16:29:09.709Z,2.40
2022-09-30T16:34:21.832Z,2.60
2022-09-30T16:39:23.548Z,2.67
2022-09-30T16:44:25.262Z,2.17
2022-09-30T16:49:26.974Z,2.35
2022-09-30T16:54:28.620Z,2.35
2022-09-30T16:59:32.667Z,2.40
2022-09-30T17:04:38.645Z,2.63
2022-09-30T17:09:41.085Z,2.40
2022-09-30T17:14:43.826Z,2.35
2022-09-30T17:19:45.611Z,2.75
2022-09-30T17:24:47.251Z,2.40
2022-09-30T17:29:48.884Z,2.58
2022-09-30T17:34:50.657Z,2.70
2022-09-30T17:39:52.334Z,2.70
2022-09-30T17:44:54.245Z,3.08
2022-09-30T17:49:55.946Z,2.90
2022-09-30T17:54:58.168Z,3.10
2022-09-30T17:59:59.940Z,3.17
2022-09-30T18:05:01.608Z,3.95
2022-09-30T18:10:03.404Z,3.38
2022-09-30T18:15:05.921Z,3.42
2022-09-30T18:20:08.372Z,4.43
2022-09-30T18:25:26.044Z,5.55
2022-09-30T18:30:27.968Z,6.28
2022-09-30T18:35:30.238Z,5.82
2022-09-30T18:40:32.131Z,5.88
2022-09-30T18:45:38.437Z,5.90
2022-09-30T18:50:40.217Z,5.80
2022-09-30T18:55:44.300Z,5.93
2022-09-30T19:00:46.053Z,5.97
2022-09-30T19:05:47.843Z,6.20
2022-09-30T19:10:50.578Z,4.97
2022-09-30T19:15:52.232Z,5.95
2022-09-30T19:20:54.443Z,5.07
2022-09-30T19:25:56.268Z,6.00
2022-09-30T19:31:05.785Z,5.40
2022-09-30T19:36:14.775Z,5.40
2022-09-30T19:41:17.763Z,4.93
2022-09-30T19:46:21.601Z,6.63
2022-09-30T19:51:23.738Z,5.00
2022-09-30T19:56:25.753Z,5.45
2022-09-30T20:01:28.595Z,4.45
2022-09-30T20:06:31.242Z,4.32
2022-09-30T20:11:36.423Z,4.78
2022-09-30T20:16:38.620Z,4.75
2022-09-30T20:21:43.723Z,4.65
2022-09-30T20:26:45.979Z,5.07
2022-09-30T20:31:48.309Z,4.40
2022-09-30T20:36:50.084Z,4.25
2022-09-30T20:41:51.917Z,4.65
2022-09-30T20:46:53.659Z,4.50
2022-09-30T20:51:55.330Z,3.85
2022-09-30T20:57:10.673Z,3.40
2022-09-30T21:02:14.037Z,4.18
2022-09-30T21:07:15.763Z,4.70
2022-09-30T21:12:17.471Z,4.25
2022-09-30T21:17:19.164Z,4.35
2022-09-30T21:22:20.821Z,4.72
2022-09-30T21:27:22.728Z,3.90
2022-09-30T21:32:24.660Z,4.00
2022-09-30T21:37:26.596Z,3.92
2022-09-30T21:42:28.681Z,4.47
2022-09-30T21:47:30.415Z,4.70
2022-09-30T21:52:32.977Z,4.82
2022-09-30T21:57:34.777Z,5.18
2022-09-30T22:02:36.762Z,3.83
2022-09-30T22:07:39.015Z,4.38
2022-09-30T22:12:40.699Z,5.00
2022-09-30T22:17:42.358Z,4.47
2022-09-30T22:22:44.067Z,5.20
2022-09-30T22:27:46.254Z,5.18
2022-09-30T22:33:07.999Z,5.55
2022-09-30T22:38:16.038Z,5.05
2022-09-30T22:43:17.736Z,4.78
2022-09-30T22:48:19.394Z,5.72
2022-09-30T22:53:21.062Z,5.82
2022-09-30T22:58:26.431Z,6.05
2022-09-30T23:03:28.447Z,5.45
2022-09-30T23:08:33.325Z,6.10
2022-09-30T23:13:35.736Z,5.45
2022-09-30T23:18:37.399Z,5.90
2022-09-30T23:23:40.059Z,5.57
2022-09-30T23:28:42.171Z,6.25
2022-09-30T23:33:53.599Z,6.15
2022-09-30T23:38:59.925Z,6.40
2022-09-30T23:44:01.894Z,6.00
2022-09-30T23:49:03.560Z,6.35
2022-09-30T23:54:05.432Z,6.10
2022-09-30T23:59:07.091Z,6.53
